sensor_id;sensor_type;location;lat;lon;timestamp;temperature;humidity
14079;DHT22;7115;50.150;8.568;2024-03-23T00:54:32;10.10;99.90
14079;DHT22;7115;50.150;8.568;2024-03-23T00:56:58;10.10;99.90
14079;DHT22;7115;50.150;8.568;2024-03-23T00:59:24;10.20;99.90
14079;DHT22;7115;50.150;8.568;2024-03-23T01:01:54;10.20;99.90
14079;DHT22;7115;50.150;8.568;2024-03-23T01:04:20;10.20;99.90
14079;DHT22;7115;50.150;8.568;2024-03-23T01:06:47;10.20;99.90
14079;DHT22;7115;50.150;8.568;2024-03-23T01:09:13;10.30;99.90
14079;DHT22;7115;50.150;8.568;2024-03-23T01:11:39;10.30;99.90
14079;DHT22;7115;50.150;8.568;2024-03-23T01:14:05;10.30;99.90
14079;DHT22;7115;50.150;8.568;2024-03-23T01:16:31;10.30;99.90
14079;DHT22;7115;50.150;8.568;2024-03-23T01:18:58;10.40;99.90
14079;DHT22;7115;50.150;8.568;2024-03-23T01:21:24;10.40;99.90
14079;DHT22;7115;50.150;8.568;2024-03-23T01:23:51;10.40;99.90
14079;DHT22;7115;50.150;8.568;2024-03-23T01:26:17;10.50;99.90
14079;DHT22;7115;50.150;8.568;2024-03-23T01:28:43;10.40;99.90
14079;DHT22;7115;50.150;8.568;2024-03-23T01:31:09;10.50;99.90
14079;DHT22;7115;50.150;8.568;2024-03-23T01:33:35;10.50;99.90
14079;DHT22;7115;50.150;8.568;2024-03-23T01:36:01;10.50;99.90
14079;DHT22;7115;50.150;8.568;2024-03-23T01:38:28;10.50;99.90
14079;DHT22;7115;50.150;8.568;2024-03-23T01:40:57;10.60;99.90
14079;DHT22;7115;50.150;8.568;2024-03-23T01:43:23;10.50;99.90
14079;DHT22;7115;50.150;8.568;2024-03-23T01:45:50;10.60;99.90
14079;DHT22;7115;50.150;8.568;2024-03-23T01:48:16;10.60;99.90
14079;DHT22;7115;50.150;8.568;2024-03-23T01:50:42;10.60;99.90
14079;DHT22;7115;50.150;8.568;2024-03-23T01:53:08;10.60;99.90
14079;DHT22;7115;50.150;8.568;2024-03-23T01:55:34;10.60;99.90
14079;DHT22;7115;50.150;8.568;2024-03-23T01:58:01;10.60;99.90
14079;DHT22;7115;50.150;8.568;2024-03-23T02:00:27;10.60;99.90
14079;DHT22;7115;50.150;8.568;2024-03-23T02:02:53;10.60;99.90
14079;DHT22;7115;50.150;8.568;2024-03-23T02:05:20;10.60;99.90
14079;DHT22;7115;50.150;8.568;2024-03-23T02:07:46;10.60;99.90
14079;DHT22;7115;50.150;8.568;2024-03-23T02:10:12;10.60;99.90
14079;DHT22;7115;50.150;8.568;2024-03-23T02:12:41;10.60;99.90
14079;DHT22;7115;50.150;8.568;2024-03-23T02:15:09;10.60;99.90
14079;DHT22;7115;50.150;8.568;2024-03-23T02:17:35;10.50;99.90
14079;DHT22;7115;50.150;8.568;2024-03-23T02:20:02;10.50;99.90
14079;DHT22;7115;50.150;8.568;2024-03-23T02:22:38;10.50;99.90
14079;DHT22;7115;50.150;8.568;2024-03-23T02:25:06;10.50;99.90
14079;DHT22;7115;50.150;8.568;2024-03-23T02:27:32;10.50;99.90
14079;DHT22;7115;50.150;8.568;2024-03-23T02:29:59;10.50;99.90
14079;DHT22;7115;50.150;8.568;2024-03-23T02:32:25;10.50;99.90
14079;DHT22;7115;50.150;8.568;2024-03-23T02:34:51;10.60;99.90
14079;DHT22;7115;50.150;8.568;2024-03-23T02:37:17;10.50;99.90
14079;DHT22;7115;50.150;8.568;2024-03-23T02:39:43;10.50;99.90
14079;DHT22;7115;50.150;8.568;2024-03-23T02:42:11;10.50;99.90
14079;DHT22;7115;50.150;8.568;2024-03-23T02:44:37;10.60;99.90
14079;DHT22;7115;50.150;8.568;2024-03-23T02:47:03;10.60;99.90
14079;DHT22;7115;50.150;8.568;2024-03-23T02:49:29;10.60;99.90
14079;DHT22;7115;50.150;8.568;2024-03-23T02:51:55;10.60;99.90
14079;DHT22;7115;50.150;8.568;2024-03-23T02:54:21;10.70;99.90
14079;DHT22;7115;50.150;8.568;2024-03-23T02:56:47;10.70;99.90
14079;DHT22;7115;50.150;8.568;2024-03-23T02:59:14;10.70;99.90
14079;DHT22;7115;50.150;8.568;2024-03-23T03:01:40;10.70;99.90
14079;DHT22;7115;50.150;8.568;2024-03-23T03:04:06;10.70;99.90
14079;DHT22;7115;50.150;8.568;2024-03-23T03:06:32;10.70;99.90
14079;DHT22;7115;50.150;8.568;2024-03-23T03:08:58;10.70;99.90
14079;DHT22;7115;50.150;8.568;2024-03-23T03:11:24;10.70;99.90
14079;DHT22;7115;50.150;8.568;2024-03-23T03:13:50;10.70;99.90
14079;DHT22;7115;50.150;8.568;2024-03-23T03:16:17;10.70;99.90
14079;DHT22;7115;50.150;8.568;2024-03-23T03:18:44;10.80;99.90
14079;DHT22;7115;50.150;8.568;2024-03-23T03:21:12;10.70;99.90
14079;DHT22;7115;50.150;8.568;2024-03-23T03:23:38;10.70;99.90
14079;DHT22;7115;50.150;8.568;2024-03-23T03:26:04;10.80;99.90
14079;DHT22;7115;50.150;8.568;2024-03-23T03:28:30;10.80;99.90
14079;DHT22;7115;50.150;8.568;2024-03-23T03:30:58;10.70;99.90
14079;DHT22;7115;50.150;8.568;2024-03-23T03:33:26;10.80;99.90
14079;DHT22;7115;50.150;8.568;2024-03-23T03:35:52;10.70;99.90
14079;DHT22;7115;50.150;8.568;2024-03-23T03:38:18;10.70;99.90
14079;DHT22;7115;50.150;8.568;2024-03-23T03:40:45;10.70;99.90
14079;DHT22;7115;50.150;8.568;2024-03-23T03:43:11;10.60;99.90
14079;DHT22;7115;50.150;8.568;2024-03-23T03:45:37;10.60;99.90
14079;DHT22;7115;50.150;8.568;2024-03-23T03:48:05;10.60;99.90
14079;DHT22;7115;50.150;8.568;2024-03-23T03:50:33;10.50;99.90
14079;DHT22;7115;50.150;8.568;2024-03-23T03:52:59;10.50;99.90
14079;DHT22;7115;50.150;8.568;2024-03-23T03:55:25;10.50;99.90
14079;DHT22;7115;50.150;8.568;2024-03-23T03:57:51;10.40;99.90
14079;DHT22;7115;50.150;8.568;2024-03-23T04:00:17;10.40;99.90
14079;DHT22;7115;50.150;8.568;2024-03-23T04:02:43;10.40;99.90
14079;DHT22;7115;50.150;8.568;2024-03-23T04:05:09;10.40;99.90
14079;DHT22;7115;50.150;8.568;2024-03-23T04:07:36;10.40;99.90
14079;DHT22;7115;50.150;8.568;2024-03-23T04:10:03;10.50;99.90
14079;DHT22;7115;50.150;8.568;2024-03-23T04:12:33;10.50;99.90
14079;DHT22;7115;50.150;8.568;2024-03-23T04:14:59;10.50;99.90
14079;DHT22;7115;50.150;8.568;2024-03-23T04:17:25;10.50;99.90
14079;DHT22;7115;50.150;8.568;2024-03-23T04:19:51;10.50;99.90
14079;DHT22;7115;50.150;8.568;2024-03-23T04:22:18;10.40;99.90
14079;DHT22;7115;50.150;8.568;2024-03-23T04:24:45;10.30;99.90
14079;DHT22;7115;50.150;8.568;2024-03-23T04:27:11;10.30;99.90
14079;DHT22;7115;50.150;8.568;2024-03-23T04:29:37;10.20;99.90
14079;DHT22;7115;50.150;8.568;2024-03-23T04:32:04;10.10;99.90
14079;DHT22;7115;50.150;8.568;2024-03-23T04:34:30;9.90;99.90
14079;DHT22;7115;50.150;8.568;2024-03-23T04:36:58;9.80;99.90
14079;DHT22;7115;50.150;8.568;2024-03-23T04:39:24;9.70;99.90
14079;DHT22;7115;50.150;8.568;2024-03-23T04:41:52;9.60;99.90
14079;DHT22;7115;50.150;8.568;2024-03-23T04:44:18;9.50;99.90
14079;DHT22;7115;50.150;8.568;2024-03-23T04:46:44;9.50;99.90
14079;DHT22;7115;50.150;8.568;2024-03-23T04:49:10;9.50;99.90
14079;DHT22;7115;50.150;8.568;2024-03-23T04:51:36;9.50;99.90
14079;DHT22;7115;50.150;8.568;2024-03-23T04:54:07;9.50;99.90
14079;DHT22;7115;50.150;8.568;2024-03-23T04:56:33;9.50;99.90
14079;DHT22;7115;50.150;8.568;2024-03-23T04:59:01;9.60;99.90
14079;DHT22;7115;50.150;8.568;2024-03-23T05:01:27;9.60;99.90
14079;DHT22;7115;50.150;8.568;2024-03-23T05:03:53;9.60;99.90
14079;DHT22;7115;50.150;8.568;2024-03-23T05:06:19;9.50;99.90
14079;DHT22;7115;50.150;8.568;2024-03-23T05:08:45;9.50;99.90
14079;DHT22;7115;50.150;8.568;2024-03-23T05:11:11;9.50;99.90
14079;DHT22;7115;50.150;8.568;2024-03-23T05:13:37;9.50;99.90
14079;DHT22;7115;50.150;8.568;2024-03-23T05:16:05;9.50;99.90
14079;DHT22;7115;50.150;8.568;2024-03-23T05:18:31;9.40;99.90
14079;DHT22;7115;50.150;8.568;2024-03-23T05:20:58;9.40;99.90
14079;DHT22;7115;50.150;8.568;2024-03-23T05:23:24;9.40;99.90
14079;DHT22;7115;50.150;8.568;2024-03-23T05:25:50;9.30;99.90
14079;DHT22;7115;50.150;8.568;2024-03-23T05:28:17;9.20;99.90
14079;DHT22;7115;50.150;8.568;2024-03-23T05:30:43;9.20;99.90
14079;DHT22;7115;50.150;8.568;2024-03-23T05:33:10;9.20;99.90
14079;DHT22;7115;50.150;8.568;2024-03-23T05:35:36;9.20;99.90
14079;DHT22;7115;50.150;8.568;2024-03-23T05:38:03;9.10;99.90
14079;DHT22;7115;50.150;8.568;2024-03-23T05:40:29;9.10;99.90
14079;DHT22;7115;50.150;8.568;2024-03-23T05:42:55;9.10;99.90
14079;DHT22;7115;50.150;8.568;2024-03-23T05:45:24;9.00;99.90
14079;DHT22;7115;50.150;8.568;2024-03-23T05:47:50;9.00;99.90
14079;DHT22;7115;50.150;8.568;2024-03-23T05:50:17;9.00;99.90
14079;DHT22;7115;50.150;8.568;2024-03-23T05:52:43;9.00;99.90
14079;DHT22;7115;50.150;8.568;2024-03-23T05:55:10;9.00;99.90
14079;DHT22;7115;50.150;8.568;2024-03-23T05:57:36;9.00;99.90
14079;DHT22;7115;50.150;8.568;2024-03-23T06:00:02;8.90;99.90
14079;DHT22;7115;50.150;8.568;2024-03-23T06:02:29;8.90;99.90
14079;DHT22;7115;50.150;8.568;2024-03-23T06:04:55;8.90;99.90
14079;DHT22;7115;50.150;8.568;2024-03-23T06:07:22;8.80;99.90
14079;DHT22;7115;50.150;8.568;2024-03-23T06:09:48;8.90;99.90
14079;DHT22;7115;50.150;8.568;2024-03-23T06:12:16;8.90;99.90
14079;DHT22;7115;50.150;8.568;2024-03-23T06:14:42;8.90;99.90
14079;DHT22;7115;50.150;8.568;2024-03-23T06:17:08;8.90;99.90
14079;DHT22;7115;50.150;8.568;2024-03-23T06:19:34;9.00;99.90
14079;DHT22;7115;50.150;8.568;2024-03-23T06:22:00;9.00;99.90
14079;DHT22;7115;50.150;8.568;2024-03-23T06:24:28;9.00;99.90
14079;DHT22;7115;50.150;8.568;2024-03-23T06:26:53;9.10;99.90
14079;DHT22;7115;50.150;8.568;2024-03-23T06:29:19;9.20;99.90
14079;DHT22;7115;50.150;8.568;2024-03-23T06:31:53;9.20;99.90
14079;DHT22;7115;50.150;8.568;2024-03-23T06:34:19;9.20;99.90
14079;DHT22;7115;50.150;8.568;2024-03-23T06:36:46;9.20;99.90
14079;DHT22;7115;50.150;8.568;2024-03-23T06:39:12;9.30;99.90
14079;DHT22;7115;50.150;8.568;2024-03-23T06:41:42;9.30;99.90
14079;DHT22;7115;50.150;8.568;2024-03-23T06:44:08;9.40;99.90
14079;DHT22;7115;50.150;8.568;2024-03-23T06:46:34;9.40;99.90
14079;DHT22;7115;50.150;8.568;2024-03-23T06:49:00;9.40;99.90
14079;DHT22;7115;50.150;8.568;2024-03-23T06:51:26;9.40;99.90
14079;DHT22;7115;50.150;8.568;2024-03-23T06:53:52;9.40;99.90
14079;DHT22;7115;50.150;8.568;2024-03-23T06:56:18;9.40;99.90
14079;DHT22;7115;50.150;8.568;2024-03-23T06:58:46;9.30;99.90
14079;DHT22;7115;50.150;8.568;2024-03-23T07:01:12;9.20;99.90
14079;DHT22;7115;50.150;8.568;2024-03-23T07:03:38;9.20;99.90
14079;DHT22;7115;50.150;8.568;2024-03-23T07:06:04;9.10;99.90
14079;DHT22;7115;50.150;8.568;2024-03-23T07:08:30;9.10;99.90
14079;DHT22;7115;50.150;8.568;2024-03-23T07:10:56;9.10;99.90
14079;DHT22;7115;50.150;8.568;2024-03-23T07:13:22;9.10;99.90
14079;DHT22;7115;50.150;8.568;2024-03-23T07:15:53;9.20;99.90
14079;DHT22;7115;50.150;8.568;2024-03-23T07:18:20;9.20;99.90
14079;DHT22;7115;50.150;8.568;2024-03-23T07:20:52;9.30;99.90
14079;DHT22;7115;50.150;8.568;2024-03-23T07:23:18;9.30;99.90
14079;DHT22;7115;50.150;8.568;2024-03-23T07:25:44;9.40;99.90
14079;DHT22;7115;50.150;8.568;2024-03-23T07:28:10;9.40;99.90
14079;DHT22;7115;50.150;8.568;2024-03-23T07:30:36;9.40;99.90
14079;DHT22;7115;50.150;8.568;2024-03-23T07:33:04;9.40;99.90
14079;DHT22;7115;50.150;8.568;2024-03-23T07:35:30;9.40;99.90
14079;DHT22;7115;50.150;8.568;2024-03-23T07:37:56;9.40;99.90
14079;DHT22;7115;50.150;8.568;2024-03-23T07:40:22;9.40;99.90
14079;DHT22;7115;50.150;8.568;2024-03-23T07:42:48;9.40;99.90
14079;DHT22;7115;50.150;8.568;2024-03-23T07:45:14;9.40;99.90
14079;DHT22;7115;50.150;8.568;2024-03-23T07:47:40;9.40;99.90
14079;DHT22;7115;50.150;8.568;2024-03-23T07:50:08;9.40;99.90
14079;DHT22;7115;50.150;8.568;2024-03-23T07:52:34;9.40;99.90
14079;DHT22;7115;50.150;8.568;2024-03-23T07:55:00;9.40;99.90
14079;DHT22;7115;50.150;8.568;2024-03-23T07:57:26;9.40;99.90
14079;DHT22;7115;50.150;8.568;2024-03-23T07:59:52;9.40;99.90
14079;DHT22;7115;50.150;8.568;2024-03-23T08:02:18;9.40;99.90
14079;DHT22;7115;50.150;8.568;2024-03-23T08:04:44;9.40;99.90
14079;DHT22;7115;50.150;8.568;2024-03-23T08:07:12;9.40;99.90
14079;DHT22;7115;50.150;8.568;2024-03-23T08:09:38;9.40;99.90
14079;DHT22;7115;50.150;8.568;2024-03-23T08:12:04;9.40;99.90
14079;DHT22;7115;50.150;8.568;2024-03-23T08:14:31;9.40;99.90
14079;DHT22;7115;50.150;8.568;2024-03-23T08:16:56;9.40;99.90
14079;DHT22;7115;50.150;8.568;2024-03-23T08:19:23;9.50;99.90
14079;DHT22;7115;50.150;8.568;2024-03-23T08:21:49;9.60;99.90
14079;DHT22;7115;50.150;8.568;2024-03-23T08:24:17;9.80;99.90
14079;DHT22;7115;50.150;8.568;2024-03-23T08:26:43;9.80;99.90
14079;DHT22;7115;50.150;8.568;2024-03-23T08:29:09;9.80;99.90
14079;DHT22;7115;50.150;8.568;2024-03-23T08:31:35;9.90;99.90
14079;DHT22;7115;50.150;8.568;2024-03-23T08:34:01;9.90;99.90
14079;DHT22;7115;50.150;8.568;2024-03-23T08:36:27;9.90;99.90
14079;DHT22;7115;50.150;8.568;2024-03-23T08:38:54;9.90;99.90
14079;DHT22;7115;50.150;8.568;2024-03-23T08:41:22;9.90;99.90
14079;DHT22;7115;50.150;8.568;2024-03-23T08:43:48;10.00;99.90
14079;DHT22;7115;50.150;8.568;2024-03-23T08:46:15;10.10;99.90
14079;DHT22;7115;50.150;8.568;2024-03-23T08:48:42;10.00;99.90
14079;DHT22;7115;50.150;8.568;2024-03-23T08:51:12;10.00;99.90
14079;DHT22;7115;50.150;8.568;2024-03-23T08:53:39;9.90;99.90
14079;DHT22;7115;50.150;8.568;2024-03-23T08:56:06;9.80;99.90
14079;DHT22;7115;50.150;8.568;2024-03-23T08:58:35;9.80;99.90
14079;DHT22;7115;50.150;8.568;2024-03-23T09:01:05;9.70;99.90
14079;DHT22;7115;50.150;8.568;2024-03-23T09:03:32;9.70;99.90
14079;DHT22;7115;50.150;8.568;2024-03-23T09:05:58;9.70;99.90
14079;DHT22;7115;50.150;8.568;2024-03-23T09:08:25;9.80;99.90
14079;DHT22;7115;50.150;8.568;2024-03-23T09:10:52;9.80;99.90
14079;DHT22;7115;50.150;8.568;2024-03-23T09:13:18;9.90;99.90
14079;DHT22;7115;50.150;8.568;2024-03-23T09:15:48;10.30;99.90
14079;DHT22;7115;50.150;8.568;2024-03-23T09:18:14;10.80;99.90
14079;DHT22;7115;50.150;8.568;2024-03-23T09:24:31;12.10;99.90
14079;DHT22;7115;50.150;8.568;2024-03-23T09:26:57;12.70;99.90
14079;DHT22;7115;50.150;8.568;2024-03-23T09:29:23;13.10;99.90
14079;DHT22;7115;50.150;8.568;2024-03-23T09:31:51;13.40;99.80
14079;DHT22;7115;50.150;8.568;2024-03-23T09:34:17;13.70;99.10
14079;DHT22;7115;50.150;8.568;2024-03-23T09:36:43;14.00;98.90
14079;DHT22;7115;50.150;8.568;2024-03-23T09:39:09;14.10;98.40
14079;DHT22;7115;50.150;8.568;2024-03-23T09:41:38;14.40;98.10
14079;DHT22;7115;50.150;8.568;2024-03-23T09:44:05;14.70;97.60
14079;DHT22;7115;50.150;8.568;2024-03-23T09:46:31;15.00;97.10
14079;DHT22;7115;50.150;8.568;2024-03-23T09:49:01;15.10;96.80
14079;DHT22;7115;50.150;8.568;2024-03-23T09:51:30;15.30;96.40
14079;DHT22;7115;50.150;8.568;2024-03-23T09:53:56;15.20;96.00
14079;DHT22;7115;50.150;8.568;2024-03-23T09:56:22;15.00;95.90
14079;DHT22;7115;50.150;8.568;2024-03-23T09:58:49;15.00;95.60
14079;DHT22;7115;50.150;8.568;2024-03-23T10:01:16;15.10;95.30
14079;DHT22;7115;50.150;8.568;2024-03-23T10:03:43;15.10;94.80
14079;DHT22;7115;50.150;8.568;2024-03-23T10:06:10;14.80;94.50
14079;DHT22;7115;50.150;8.568;2024-03-23T10:08:36;14.50;94.40
14079;DHT22;7115;50.150;8.568;2024-03-23T10:11:13;14.30;94.60
14079;DHT22;7115;50.150;8.568;2024-03-23T10:13:41;14.20;93.90
14079;DHT22;7115;50.150;8.568;2024-03-23T10:16:07;14.40;94.00
14079;DHT22;7115;50.150;8.568;2024-03-23T10:18:37;14.90;93.90
14079;DHT22;7115;50.150;8.568;2024-03-23T10:21:07;15.30;92.90
14079;DHT22;7115;50.150;8.568;2024-03-23T10:23:41;15.40;92.40
14079;DHT22;7115;50.150;8.568;2024-03-23T10:26:16;15.20;92.10
14079;DHT22;7115;50.150;8.568;2024-03-23T10:28:55;14.90;92.00
14079;DHT22;7115;50.150;8.568;2024-03-23T10:31:26;14.40;91.90
14079;DHT22;7115;50.150;8.568;2024-03-23T10:33:53;13.90;92.40
14079;DHT22;7115;50.150;8.568;2024-03-23T10:36:22;13.50;92.30
14079;DHT22;7115;50.150;8.568;2024-03-23T10:38:51;13.30;92.30
14079;DHT22;7115;50.150;8.568;2024-03-23T10:41:18;12.90;92.20
14079;DHT22;7115;50.150;8.568;2024-03-23T10:43:46;12.50;92.40
14079;DHT22;7115;50.150;8.568;2024-03-23T10:46:12;12.30;92.70
14079;DHT22;7115;50.150;8.568;2024-03-23T10:48:38;12.10;92.70
14079;DHT22;7115;50.150;8.568;2024-03-23T10:51:06;12.00;92.70
14079;DHT22;7115;50.150;8.568;2024-03-23T10:53:33;11.80;92.60
14079;DHT22;7115;50.150;8.568;2024-03-23T10:56:01;11.50;93.00
14079;DHT22;7115;50.150;8.568;2024-03-23T10:58:30;11.00;93.70
14079;DHT22;7115;50.150;8.568;2024-03-23T11:00:56;10.60;94.40
14079;DHT22;7115;50.150;8.568;2024-03-23T11:03:30;10.20;95.10
14079;DHT22;7115;50.150;8.568;2024-03-23T11:05:57;9.90;95.70
14079;DHT22;7115;50.150;8.568;2024-03-23T11:08:34;9.70;96.10
14079;DHT22;7115;50.150;8.568;2024-03-23T11:11:16;9.60;96.70
14079;DHT22;7115;50.150;8.568;2024-03-23T11:13:43;9.50;97.00
14079;DHT22;7115;50.150;8.568;2024-03-23T11:16:14;9.40;97.10
14079;DHT22;7115;50.150;8.568;2024-03-23T11:18:40;9.40;97.50
14079;DHT22;7115;50.150;8.568;2024-03-23T11:21:06;9.40;97.80
14079;DHT22;7115;50.150;8.568;2024-03-23T11:23:33;9.40;98.00
14079;DHT22;7115;50.150;8.568;2024-03-23T11:25:59;9.50;98.30
14079;DHT22;7115;50.150;8.568;2024-03-23T11:28:26;9.60;98.40
14079;DHT22;7115;50.150;8.568;2024-03-23T11:30:52;9.60;98.30
14079;DHT22;7115;50.150;8.568;2024-03-23T11:33:18;9.50;98.20
14079;DHT22;7115;50.150;8.568;2024-03-23T11:35:44;9.50;98.30
14079;DHT22;7115;50.150;8.568;2024-03-23T11:38:11;9.50;98.40
14079;DHT22;7115;50.150;8.568;2024-03-23T11:40:38;9.40;98.40
14079;DHT22;7115;50.150;8.568;2024-03-23T11:43:06;9.40;98.50
14079;DHT22;7115;50.150;8.568;2024-03-23T11:45:38;9.40;98.60
14079;DHT22;7115;50.150;8.568;2024-03-23T11:48:06;9.40;98.70
14079;DHT22;7115;50.150;8.568;2024-03-23T11:50:33;9.40;98.80
14079;DHT22;7115;50.150;8.568;2024-03-23T11:53:15;9.40;98.90
14079;DHT22;7115;50.150;8.568;2024-03-23T11:55:49;9.50;99.10
14079;DHT22;7115;50.150;8.568;2024-03-23T11:58:16;9.70;99.20
14079;DHT22;7115;50.150;8.568;2024-03-23T12:00:49;10.10;99.30
14079;DHT22;7115;50.150;8.568;2024-03-23T12:03:17;10.50;99.50
14079;DHT22;7115;50.150;8.568;2024-03-23T12:05:48;10.90;99.40
14079;DHT22;7115;50.150;8.568;2024-03-23T12:08:22;11.20;99.10
14079;DHT22;7115;50.150;8.568;2024-03-23T12:10:49;11.50;99.10
14079;DHT22;7115;50.150;8.568;2024-03-23T12:13:17;11.80;98.80
14079;DHT22;7115;50.150;8.568;2024-03-23T12:15:46;12.10;98.50
14079;DHT22;7115;50.150;8.568;2024-03-23T12:18:12;12.40;98.10
14079;DHT22;7115;50.150;8.568;2024-03-23T12:20:39;12.60;97.90
14079;DHT22;7115;50.150;8.568;2024-03-23T12:23:06;13.00;97.70
14079;DHT22;7115;50.150;8.568;2024-03-23T12:25:32;13.30;97.20
14079;DHT22;7115;50.150;8.568;2024-03-23T12:27:59;13.60;96.70
14079;DHT22;7115;50.150;8.568;2024-03-23T12:30:25;13.80;96.20
14079;DHT22;7115;50.150;8.568;2024-03-23T12:32:52;13.90;95.70
14079;DHT22;7115;50.150;8.568;2024-03-23T12:35:18;14.00;95.40
14079;DHT22;7115;50.150;8.568;2024-03-23T12:37:44;14.10;95.30
14079;DHT22;7115;50.150;8.568;2024-03-23T12:40:11;14.20;95.00
14079;DHT22;7115;50.150;8.568;2024-03-23T12:42:37;14.10;94.70
14079;DHT22;7115;50.150;8.568;2024-03-23T12:45:03;13.90;94.50
14079;DHT22;7115;50.150;8.568;2024-03-23T12:47:30;13.70;94.60
14079;DHT22;7115;50.150;8.568;2024-03-23T12:49:57;13.60;94.60
14079;DHT22;7115;50.150;8.568;2024-03-23T12:52:23;13.60;94.50
14079;DHT22;7115;50.150;8.568;2024-03-23T12:54:54;13.40;94.40
14079;DHT22;7115;50.150;8.568;2024-03-23T12:57:22;13.30;94.40
14079;DHT22;7115;50.150;8.568;2024-03-23T12:59:48;13.20;94.30
14079;DHT22;7115;50.150;8.568;2024-03-23T13:02:17;13.00;94.00
14079;DHT22;7115;50.150;8.568;2024-03-23T13:04:44;12.70;94.20
14079;DHT22;7115;50.150;8.568;2024-03-23T13:07:12;12.50;94.30
14079;DHT22;7115;50.150;8.568;2024-03-23T13:09:38;12.40;94.30
14079;DHT22;7115;50.150;8.568;2024-03-23T13:12:05;12.30;94.50
14079;DHT22;7115;50.150;8.568;2024-03-23T13:14:31;12.00;94.60
14079;DHT22;7115;50.150;8.568;2024-03-23T13:16:57;11.40;95.00
14079;DHT22;7115;50.150;8.568;2024-03-23T13:19:23;10.80;95.60
14079;DHT22;7115;50.150;8.568;2024-03-23T13:21:53;10.20;96.20
14079;DHT22;7115;50.150;8.568;2024-03-23T13:24:23;9.80;96.80
14079;DHT22;7115;50.150;8.568;2024-03-23T13:26:50;9.50;97.30
14079;DHT22;7115;50.150;8.568;2024-03-23T13:29:16;9.40;97.70
14079;DHT22;7115;50.150;8.568;2024-03-23T13:31:42;9.20;98.00
14079;DHT22;7115;50.150;8.568;2024-03-23T13:34:09;9.10;98.30
14079;DHT22;7115;50.150;8.568;2024-03-23T13:36:35;9.00;99.00
14079;DHT22;7115;50.150;8.568;2024-03-23T13:39:01;9.00;99.00
14079;DHT22;7115;50.150;8.568;2024-03-23T13:41:32;9.00;99.20
14079;DHT22;7115;50.150;8.568;2024-03-23T13:43:58;9.10;99.50
14079;DHT22;7115;50.150;8.568;2024-03-23T13:46:24;9.40;99.70
14079;DHT22;7115;50.150;8.568;2024-03-23T13:48:50;9.80;99.80
14079;DHT22;7115;50.150;8.568;2024-03-23T13:51:23;10.20;99.80
14079;DHT22;7115;50.150;8.568;2024-03-23T13:53:49;10.50;99.60
14079;DHT22;7115;50.150;8.568;2024-03-23T13:56:15;10.70;99.60
14079;DHT22;7115;50.150;8.568;2024-03-23T13:58:43;10.90;99.50
14079;DHT22;7115;50.150;8.568;2024-03-23T14:01:13;11.20;99.40
14079;DHT22;7115;50.150;8.568;2024-03-23T14:03:39;11.40;99.10
14079;DHT22;7115;50.150;8.568;2024-03-23T14:06:06;11.40;98.90
14079;DHT22;7115;50.150;8.568;2024-03-23T14:08:34;11.30;98.90
14079;DHT22;7115;50.150;8.568;2024-03-23T14:11:02;11.20;98.80
14079;DHT22;7115;50.150;8.568;2024-03-23T14:13:29;11.10;98.60
14079;DHT22;7115;50.150;8.568;2024-03-23T14:15:57;11.00;98.70
14079;DHT22;7115;50.150;8.568;2024-03-23T14:18:24;10.90;98.80
14079;DHT22;7115;50.150;8.568;2024-03-23T14:20:50;10.80;98.80
14079;DHT22;7115;50.150;8.568;2024-03-23T14:23:16;10.60;98.90
14079;DHT22;7115;50.150;8.568;2024-03-23T14:25:42;10.50;99.00
14079;DHT22;7115;50.150;8.568;2024-03-23T14:28:09;10.50;99.10
14079;DHT22;7115;50.150;8.568;2024-03-23T14:30:40;10.40;99.10
14079;DHT22;7115;50.150;8.568;2024-03-23T14:33:08;10.50;99.20
14079;DHT22;7115;50.150;8.568;2024-03-23T14:35:34;10.50;99.20
14079;DHT22;7115;50.150;8.568;2024-03-23T14:38:00;10.70;99.20
14079;DHT22;7115;50.150;8.568;2024-03-23T14:40:26;11.00;99.20
14079;DHT22;7115;50.150;8.568;2024-03-23T14:42:55;11.30;99.20
14079;DHT22;7115;50.150;8.568;2024-03-23T14:45:21;11.50;98.80
14079;DHT22;7115;50.150;8.568;2024-03-23T14:47:47;11.70;98.50
14079;DHT22;7115;50.150;8.568;2024-03-23T14:50:15;11.80;98.30
14079;DHT22;7115;50.150;8.568;2024-03-23T14:52:43;11.80;98.10
14079;DHT22;7115;50.150;8.568;2024-03-23T14:55:10;11.80;98.00
14079;DHT22;7115;50.150;8.568;2024-03-23T14:57:36;11.70;97.80
14079;DHT22;7115;50.150;8.568;2024-03-23T15:00:03;11.60;97.80
14079;DHT22;7115;50.150;8.568;2024-03-23T15:02:31;11.40;97.60
14079;DHT22;7115;50.150;8.568;2024-03-23T15:04:58;11.30;97.50
14079;DHT22;7115;50.150;8.568;2024-03-23T15:07:25;11.30;97.50
14079;DHT22;7115;50.150;8.568;2024-03-23T15:09:51;11.30;97.40
14079;DHT22;7115;50.150;8.568;2024-03-23T15:12:18;11.40;97.40
14079;DHT22;7115;50.150;8.568;2024-03-23T15:14:44;11.50;97.10
14079;DHT22;7115;50.150;8.568;2024-03-23T15:17:10;11.60;96.90
14079;DHT22;7115;50.150;8.568;2024-03-23T15:19:36;11.60;96.60
14079;DHT22;7115;50.150;8.568;2024-03-23T15:22:02;11.60;96.40
14079;DHT22;7115;50.150;8.568;2024-03-23T15:24:29;11.60;96.20
14079;DHT22;7115;50.150;8.568;2024-03-23T15:26:57;11.60;96.00
14079;DHT22;7115;50.150;8.568;2024-03-23T15:29:23;11.50;95.90
14079;DHT22;7115;50.150;8.568;2024-03-23T15:31:49;11.50;95.80
14079;DHT22;7115;50.150;8.568;2024-03-23T15:34:18;11.40;95.60
14079;DHT22;7115;50.150;8.568;2024-03-23T15:36:45;11.20;95.60
14079;DHT22;7115;50.150;8.568;2024-03-23T15:39:11;11.10;95.70
14079;DHT22;7115;50.150;8.568;2024-03-23T15:41:40;10.80;95.90
14079;DHT22;7115;50.150;8.568;2024-03-23T15:44:06;10.30;96.30
14079;DHT22;7115;50.150;8.568;2024-03-23T15:46:32;9.80;96.70
14079;DHT22;7115;50.150;8.568;2024-03-23T15:48:58;9.40;97.30
14079;DHT22;7115;50.150;8.568;2024-03-23T15:51:24;9.10;97.80
14079;DHT22;7115;50.150;8.568;2024-03-23T15:53:57;8.90;98.20
14079;DHT22;7115;50.150;8.568;2024-03-23T15:56:23;8.70;98.50
14079;DHT22;7115;50.150;8.568;2024-03-23T15:58:50;8.60;98.70
14079;DHT22;7115;50.150;8.568;2024-03-23T16:01:16;8.70;99.10
14079;DHT22;7115;50.150;8.568;2024-03-23T16:03:42;8.70;99.20
14079;DHT22;7115;50.150;8.568;2024-03-23T16:06:08;8.90;99.40
14079;DHT22;7115;50.150;8.568;2024-03-23T16:08:35;8.90;99.40
14079;DHT22;7115;50.150;8.568;2024-03-23T16:11:01;9.00;99.40
14079;DHT22;7115;50.150;8.568;2024-03-23T16:13:28;9.00;99.50
14079;DHT22;7115;50.150;8.568;2024-03-23T16:15:56;9.10;99.60
14079;DHT22;7115;50.150;8.568;2024-03-23T16:18:22;9.10;99.70
14079;DHT22;7115;50.150;8.568;2024-03-23T16:20:55;9.20;99.70
14079;DHT22;7115;50.150;8.568;2024-03-23T16:23:21;9.20;99.80
14079;DHT22;7115;50.150;8.568;2024-03-23T16:25:48;9.30;99.80
14079;DHT22;7115;50.150;8.568;2024-03-23T16:28:24;9.30;99.80
14079;DHT22;7115;50.150;8.568;2024-03-23T16:30:56;9.40;99.80
14079;DHT22;7115;50.150;8.568;2024-03-23T16:33:22;9.40;99.80
14079;DHT22;7115;50.150;8.568;2024-03-23T16:35:56;9.40;99.80
14079;DHT22;7115;50.150;8.568;2024-03-23T16:38:22;9.40;99.90
14079;DHT22;7115;50.150;8.568;2024-03-23T16:40:56;9.30;99.80
14079;DHT22;7115;50.150;8.568;2024-03-23T16:43:22;9.30;99.90
14079;DHT22;7115;50.150;8.568;2024-03-23T16:45:53;9.20;99.90
14079;DHT22;7115;50.150;8.568;2024-03-23T16:48:21;9.20;99.90